createdAt,value
2018-11-21T00:02:11.346Z,24.87
2018-11-21T00:04:59.253Z,21.45
2018-11-21T00:07:47.051Z,22.80
2018-11-21T00:10:34.950Z,20.30
2018-11-21T00:13:15.473Z,21.42
2018-11-21T00:15:56.466Z,22.85
2018-11-21T00:18:37.553Z,20.82
2018-11-21T00:21:18.679Z,28.25
2018-11-21T00:23:59.474Z,24.25
2018-11-21T00:26:39.867Z,21.15
2018-11-21T00:29:20.637Z,19.35
2018-11-21T00:32:01.408Z,23.30
2018-11-21T00:34:42.764Z,23.10
2018-11-21T00:37:24.215Z,23.32
2018-11-21T00:40:04.906Z,25.68
2018-11-21T00:42:46.878Z,22.25
2018-11-21T00:45:25.985Z,20.90
2018-11-21T00:48:06.507Z,20.17
2018-11-21T00:50:47.318Z,20.23
2018-11-21T00:53:27.633Z,23.10
2018-11-21T00:56:08.694Z,19.55
2018-11-21T01:01:31.883Z,21.90
2018-11-21T01:04:12.495Z,20.80
2018-11-21T01:06:53.441Z,20.52
2018-11-21T01:09:34.145Z,21.57
2018-11-21T01:12:14.566Z,22.80
2018-11-21T01:14:55.238Z,25.17
2018-11-21T01:17:36.223Z,20.27
2018-11-21T01:20:17.461Z,19.45
2018-11-21T01:22:58.542Z,27.40
2018-11-21T01:25:39.678Z,22.48
2018-11-21T01:28:20.395Z,24.25
2018-11-21T01:31:01.713Z,23.83
2018-11-21T01:33:42.823Z,23.57
2018-11-21T01:36:23.728Z,22.50
2018-11-21T01:39:04.854Z,23.75
2018-11-21T01:41:45.962Z,27.73
2018-11-21T01:44:27.105Z,21.87
2018-11-21T01:47:07.722Z,22.90
2018-11-21T01:49:48.470Z,22.70
2018-11-21T01:52:28.902Z,26.65
2018-11-21T01:55:10.166Z,24.37
2018-11-21T01:57:51.016Z,22.67
2018-11-21T02:00:32.183Z,26.57
2018-11-21T02:05:54.847Z,25.62
2018-11-21T02:08:35.758Z,20.43
2018-11-21T02:11:16.634Z,25.75
2018-11-21T02:13:57.098Z,23.47
2018-11-21T02:16:38.090Z,25.68
2018-11-21T02:19:19.121Z,23.32
2018-11-21T02:21:59.470Z,24.45
2018-11-21T02:24:39.884Z,25.88
2018-11-21T02:27:20.896Z,22.62
2018-11-21T02:30:02.059Z,23.20
2018-11-21T02:32:43.181Z,27.20
2018-11-21T02:35:23.393Z,23.22
2018-11-21T02:38:04.043Z,25.08
2018-11-21T02:40:44.743Z,23.52
2018-11-21T02:43:25.851Z,25.08
2018-11-21T02:46:06.470Z,24.45
2018-11-21T02:48:47.054Z,24.72
2018-11-21T02:51:28.186Z,21.07
2018-11-21T02:54:09.151Z,22.65
2018-11-21T02:56:49.599Z,28.02
2018-11-21T02:59:30.770Z,24.23
2018-11-21T03:02:12.045Z,24.23
2018-11-21T03:04:53.167Z,22.10
2018-11-21T03:07:34.450Z,26.02
2018-11-21T03:10:15.715Z,22.48
2018-11-21T03:12:56.731Z,27.98
2018-11-21T03:15:37.310Z,26.95
2018-11-21T03:18:18.379Z,27.30
2018-11-21T03:20:59.592Z,26.52
2018-11-21T03:23:39.819Z,25.88
2018-11-21T03:26:20.218Z,21.02
2018-11-21T03:29:00.824Z,27.50
2018-11-21T03:31:42.149Z,22.90
2018-11-21T03:34:23.014Z,24.47
2018-11-21T03:37:04.291Z,24.55
2018-11-21T03:39:45.328Z,21.60
2018-11-21T03:42:26.315Z,24.60
2018-11-21T03:45:06.758Z,25.70
2018-11-21T03:47:47.747Z,22.93
2018-11-21T03:53:10.554Z,21.87
2018-11-21T03:55:51.102Z,24.82
2018-11-21T03:58:32.307Z,24.30
2018-11-21T04:01:13.345Z,22.75
2018-11-21T04:03:54.029Z,24.50
2018-11-21T04:06:35.361Z,23.18
2018-11-21T04:09:16.636Z,20.37
2018-11-21T04:11:57.683Z,22.73
2018-11-21T04:14:38.865Z,20.75
2018-11-21T04:17:19.954Z,23.02
2018-11-21T04:20:01.112Z,17.77
2018-11-21T04:22:42.219Z,19.52
2018-11-21T04:25:23.414Z,21.85
2018-11-21T04:28:04.371Z,20.72
2018-11-21T04:30:44.672Z,17.95
2018-11-21T04:33:25.812Z,22.37
2018-11-21T04:36:06.122Z,25.60
2018-11-21T04:38:45.064Z,23.85
2018-11-21T04:41:32.815Z,23.32
2018-11-21T04:44:20.606Z,23.30
2018-11-21T04:47:08.370Z,19.35
2018-11-21T04:49:56.157Z,22.50
2018-11-21T04:52:43.894Z,22.17
2018-11-21T04:55:31.842Z,20.60
2018-11-21T04:58:19.625Z,20.68
2018-11-21T05:01:07.433Z,20.80
2018-11-21T05:03:55.153Z,18.17
2018-11-21T05:06:42.966Z,22.77
2018-11-21T05:09:30.739Z,22.95
2018-11-21T05:12:18.523Z,20.97
2018-11-21T05:15:06.426Z,24.95
2018-11-21T05:17:54.194Z,21.17
2018-11-21T05:23:35.467Z,23.52
2018-11-21T05:26:23.196Z,18.07
2018-11-21T05:28:51.864Z,25.08
2018-11-21T05:31:39.587Z,19.10
2018-11-21T05:34:27.399Z,24.85
2018-11-21T05:37:15.140Z,20.52
2018-11-21T05:40:03.009Z,19.50
2018-11-21T05:42:50.785Z,22.52
2018-11-21T05:45:38.520Z,21.93
2018-11-21T05:48:26.313Z,24.27
2018-11-21T05:51:14.068Z,20.02
2018-11-21T05:54:01.871Z,21.70
2018-11-21T05:56:49.606Z,25.00
2018-11-21T05:59:37.473Z,31.80
2018-11-21T06:02:25.200Z,29.23
2018-11-21T06:05:13.295Z,31.65
2018-11-21T06:08:01.022Z,31.93
2018-11-21T06:10:48.847Z,32.93
2018-11-21T06:13:36.595Z,26.93
2018-11-21T06:16:24.391Z,28.20
2018-11-21T06:19:12.352Z,25.30
2018-11-21T06:22:00.145Z,24.60
2018-11-21T06:24:47.891Z,21.97
2018-11-21T06:27:29.158Z,25.60
2018-11-21T06:30:09.515Z,22.40
2018-11-21T06:32:49.978Z,25.32
2018-11-21T06:35:30.103Z,24.50
2018-11-21T06:38:11.389Z,21.77
2018-11-21T06:40:52.601Z,31.52
2018-11-21T06:43:33.131Z,25.65
2018-11-21T06:46:14.415Z,25.23
2018-11-21T06:48:55.189Z,25.45
2018-11-21T06:51:36.355Z,35.50
2018-11-21T06:54:17.325Z,24.25
2018-11-21T06:56:58.350Z,24.55
2018-11-21T06:59:39.561Z,29.42
2018-11-21T07:02:20.590Z,31.35
2018-11-21T07:05:01.816Z,25.15
2018-11-21T07:07:42.375Z,26.40
2018-11-21T07:10:13.839Z,25.80
2018-11-21T07:13:01.670Z,26.62
2018-11-21T07:15:49.527Z,24.35
2018-11-21T07:18:37.717Z,28.70
2018-11-21T07:21:25.528Z,24.25
2018-11-21T07:24:13.332Z,27.95
2018-11-21T07:27:01.176Z,30.17
2018-11-21T07:29:49.021Z,23.83
2018-11-21T07:32:36.839Z,25.50
2018-11-21T07:35:24.649Z,24.05
2018-11-21T07:38:12.515Z,21.37
2018-11-21T07:41:00.448Z,20.05
2018-11-21T07:43:48.240Z,24.40
2018-11-21T07:46:36.147Z,23.75
2018-11-21T07:49:24.202Z,23.92
2018-11-21T07:52:12.068Z,25.32
2018-11-21T07:54:59.814Z,26.73
2018-11-21T07:57:52.552Z,23.60
2018-11-21T08:01:03.573Z,22.93
2018-11-21T08:04:10.557Z,25.48
2018-11-21T08:07:02.257Z,21.75
2018-11-21T08:10:09.338Z,22.10
2018-11-21T08:13:16.487Z,30.00
2018-11-21T08:16:23.276Z,22.90
2018-11-21T08:19:30.180Z,24.43
2018-11-21T08:22:37.189Z,22.45
2018-11-21T08:25:44.119Z,21.42
2018-11-21T08:28:32.061Z,24.95
2018-11-21T08:31:19.816Z,23.35
2018-11-21T08:34:07.622Z,24.55
2018-11-21T08:36:55.385Z,23.47
2018-11-21T08:39:43.267Z,24.37
2018-11-21T08:42:31.030Z,22.70
2018-11-21T08:45:18.836Z,26.50
2018-11-21T08:48:06.837Z,22.60
2018-11-21T08:50:54.622Z,18.30
2018-11-21T08:53:42.365Z,21.75
2018-11-21T08:56:30.183Z,22.35
2018-11-21T08:59:17.919Z,15.25
2018-11-21T09:02:05.754Z,21.62
2018-11-21T09:04:53.474Z,21.33
2018-11-21T09:07:42.150Z,20.82
2018-11-21T09:13:17.021Z,19.85
2018-11-21T09:16:04.997Z,19.35
2018-11-21T09:18:52.853Z,19.10
2018-11-21T09:21:40.717Z,18.77
2018-11-21T09:24:28.469Z,25.25
2018-11-21T09:27:16.264Z,21.93
2018-11-21T09:30:04.890Z,18.10
2018-11-21T09:32:54.348Z,16.10
2018-11-21T09:35:42.089Z,20.25
2018-11-21T09:38:29.933Z,19.20
2018-11-21T09:41:17.705Z,18.67
2018-11-21T09:44:05.648Z,18.35
2018-11-21T09:46:53.417Z,16.77
2018-11-21T09:49:41.273Z,18.65
2018-11-21T09:52:29.065Z,15.70
2018-11-21T09:55:17.096Z,19.00
2018-11-21T09:58:05.025Z,21.52
2018-11-21T10:01:12.138Z,20.62
2018-11-21T10:04:01.024Z,19.25
2018-11-21T10:06:47.745Z,18.60
2018-11-21T10:12:31.955Z,18.60
2018-11-21T10:15:19.740Z,15.40
2018-11-21T10:18:07.560Z,16.95
2018-11-21T10:20:55.418Z,17.02
2018-11-21T10:23:43.261Z,16.42
2018-11-21T10:26:31.144Z,17.42
2018-11-21T10:29:18.994Z,19.57
2018-11-21T10:32:06.925Z,17.48
2018-11-21T10:34:54.773Z,13.93
2018-11-21T10:37:42.542Z,16.52
2018-11-21T10:40:30.345Z,16.85
2018-11-21T10:43:18.204Z,18.30
2018-11-21T10:46:06.262Z,20.20
2018-11-21T10:48:54.028Z,22.73
2018-11-21T10:51:41.899Z,18.82
2018-11-21T10:54:29.641Z,18.20
2018-11-21T10:57:17.476Z,17.87
2018-11-21T11:00:08.340Z,15.75
2018-11-21T11:03:15.325Z,19.27
2018-11-21T11:06:22.330Z,15.35
2018-11-21T11:09:29.973Z,16.52
2018-11-21T11:12:36.882Z,16.80
2018-11-21T11:15:43.977Z,20.45
2018-11-21T11:18:50.933Z,17.40
2018-11-21T11:21:57.919Z,17.05
2018-11-21T11:25:04.825Z,14.33
2018-11-21T11:28:14.640Z,15.80
2018-11-21T11:31:09.177Z,16.85
2018-11-21T11:34:16.130Z,18.45
2018-11-21T11:37:23.088Z,18.07
2018-11-21T11:40:30.119Z,19.23
2018-11-21T11:43:11.039Z,17.70
2018-11-21T11:46:10.550Z,23.80
2018-11-21T11:49:17.463Z,21.65
2018-11-21T11:52:24.524Z,21.30
2018-11-21T11:55:31.473Z,14.60
2018-11-21T11:58:27.081Z,15.15
2018-11-21T12:01:34.000Z,14.23
2018-11-21T12:04:40.879Z,16.37
2018-11-21T12:07:43.522Z,16.73
2018-11-21T12:10:35.327Z,20.43
2018-11-21T12:13:41.388Z,19.82
2018-11-21T12:16:47.525Z,16.62
2018-11-21T12:19:47.551Z,15.40
2018-11-21T12:22:50.386Z,19.32
2018-11-21T12:25:50.563Z,17.02
2018-11-21T12:28:38.316Z,14.80
2018-11-21T12:31:45.236Z,18.75
2018-11-21T12:34:52.249Z,18.23
2018-11-21T12:37:59.134Z,16.48
2018-11-21T12:41:06.299Z,15.85
2018-11-21T12:44:13.086Z,16.32
2018-11-21T12:47:20.101Z,13.75
2018-11-21T12:50:27.903Z,16.23
2018-11-21T12:53:34.866Z,19.20
2018-11-21T12:56:41.835Z,17.20
2018-11-21T12:59:48.749Z,17.48
2018-11-21T13:02:55.770Z,16.95
2018-11-21T13:06:02.656Z,18.07
2018-11-21T13:09:09.652Z,15.55
2018-11-21T13:12:07.994Z,16.27
2018-11-21T13:15:14.962Z,13.50
2018-11-21T13:18:21.911Z,15.53
2018-11-21T13:21:29.018Z,15.80
2018-11-21T13:24:35.977Z,15.15
2018-11-21T13:27:42.859Z,13.55
2018-11-21T13:30:50.035Z,16.75
2018-11-21T13:33:56.900Z,15.28
2018-11-21T13:37:03.840Z,18.12
2018-11-21T13:40:11.572Z,19.57
2018-11-21T13:43:18.575Z,16.07
2018-11-21T13:46:25.460Z,19.07
2018-11-21T13:49:32.395Z,16.42
2018-11-21T13:52:39.351Z,16.55
2018-11-21T13:55:08.344Z,18.07
2018-11-21T13:57:56.151Z,16.73
2018-11-21T14:00:44.031Z,16.37
2018-11-21T14:03:31.933Z,18.20
2018-11-21T14:06:19.672Z,16.35
2018-11-21T14:09:11.268Z,14.93
2018-11-21T14:11:59.239Z,17.10
2018-11-21T14:14:47.766Z,14.85
2018-11-21T14:17:36.203Z,15.93
2018-11-21T14:20:24.192Z,14.58
2018-11-21T14:23:11.992Z,15.88
2018-11-21T14:25:59.937Z,19.23
2018-11-21T14:28:47.715Z,18.90
2018-11-21T14:31:35.615Z,11.63
2018-11-21T14:34:23.427Z,22.90
2018-11-21T14:37:11.197Z,17.17
2018-11-21T14:39:59.047Z,12.85
2018-11-21T14:42:46.849Z,17.40
2018-11-21T14:45:34.651Z,17.32
2018-11-21T14:48:22.661Z,19.80
2018-11-21T14:51:10.510Z,16.05
2018-11-21T14:53:58.330Z,15.78
2018-11-21T14:56:46.335Z,14.73
2018-11-21T14:59:34.166Z,18.90
2018-11-21T15:02:22.108Z,13.13
2018-11-21T15:05:10.869Z,15.88
2018-11-21T15:07:58.892Z,18.07
2018-11-21T15:10:46.747Z,12.75
2018-11-21T15:13:35.067Z,12.63
2018-11-21T15:16:23.639Z,12.60
2018-11-21T15:19:11.798Z,16.15
2018-11-21T15:24:54.179Z,16.27
2018-11-21T15:27:42.123Z,16.67
2018-11-21T15:30:30.533Z,14.98
2018-11-21T15:33:18.436Z,16.42
2018-11-21T15:36:06.406Z,11.48
2018-11-21T15:41:48.359Z,14.63
2018-11-21T15:44:36.483Z,14.05
2018-11-21T15:47:24.342Z,14.87
2018-11-21T15:50:13.622Z,14.80
2018-11-21T15:53:01.428Z,14.05
2018-11-21T15:55:49.359Z,12.20
2018-11-21T15:58:37.091Z,13.30
2018-11-21T16:01:25.037Z,11.75
2018-11-21T16:04:12.826Z,13.60
2018-11-21T16:07:00.653Z,14.10
2018-11-21T16:09:48.446Z,12.13
2018-11-21T16:15:35.455Z,11.25
2018-11-21T16:18:18.845Z,13.05
2018-11-21T16:21:06.680Z,12.40
2018-11-21T16:23:54.510Z,18.45
2018-11-21T16:26:42.337Z,18.60
2018-11-21T16:29:10.741Z,17.35
2018-11-21T16:31:58.478Z,12.33
2018-11-21T16:34:46.268Z,20.60
2018-11-21T16:37:34.026Z,17.77
2018-11-21T16:40:23.550Z,23.75
2018-11-21T16:43:11.379Z,12.28
2018-11-21T16:45:59.794Z,12.90
2018-11-21T16:48:47.604Z,25.52
2018-11-21T16:51:35.328Z,12.18
2018-11-21T16:54:23.219Z,10.48
2018-11-21T16:57:11.059Z,12.53
2018-11-21T16:59:58.849Z,14.47
2018-11-21T17:02:46.705Z,11.75
2018-11-21T17:05:34.452Z,13.00
2018-11-21T17:11:15.799Z,13.20
2018-11-21T17:14:03.614Z,12.45
2018-11-21T17:16:51.465Z,12.33
2018-11-21T17:19:39.259Z,12.00
2018-11-21T17:22:27.076Z,11.65
2018-11-21T17:25:16.478Z,13.00
2018-11-21T17:28:04.566Z,14.93
2018-11-21T17:30:32.987Z,13.35
2018-11-21T17:33:20.852Z,11.40
2018-11-21T17:36:08.583Z,14.50
2018-11-21T17:38:56.384Z,15.53
2018-11-21T17:41:44.848Z,14.15
2018-11-21T17:44:25.823Z,13.93
2018-11-21T17:47:06.231Z,11.85
2018-11-21T17:49:47.400Z,14.38
2018-11-21T17:52:26.932Z,13.10
2018-11-21T17:55:08.193Z,15.83
2018-11-21T17:57:48.392Z,13.68
2018-11-21T18:00:29.686Z,13.45
2018-11-21T18:02:58.279Z,12.33
2018-11-21T18:05:46.136Z,12.65
2018-11-21T18:08:33.945Z,9.80
2018-11-21T18:11:21.881Z,11.22
2018-11-21T18:14:09.675Z,11.78
2018-11-21T18:16:57.414Z,13.70
2018-11-21T18:19:45.246Z,16.52
2018-11-21T18:22:33.016Z,14.35
2018-11-21T18:25:23.011Z,13.58
2018-11-21T18:28:10.846Z,13.62
2018-11-21T18:30:58.686Z,15.05
2018-11-21T18:33:46.493Z,13.00
2018-11-21T18:36:34.349Z,14.25
2018-11-21T18:39:22.153Z,14.70
2018-11-21T18:42:10.014Z,14.07
2018-11-21T18:44:57.852Z,17.45
2018-11-21T18:47:46.241Z,16.60
2018-11-21T18:50:34.056Z,13.95
2018-11-21T18:53:21.972Z,13.80
2018-11-21T18:56:12.170Z,14.18
2018-11-21T18:59:01.830Z,14.23
2018-11-21T19:01:49.617Z,12.40
2018-11-21T19:04:37.425Z,13.75
2018-11-21T19:07:25.258Z,12.03
2018-11-21T19:10:14.443Z,14.78
2018-11-21T19:13:02.278Z,19.25
2018-11-21T19:15:50.024Z,14.10
2018-11-21T19:18:37.852Z,12.20
2018-11-21T19:21:25.994Z,10.85
2018-11-21T19:24:13.351Z,14.65
2018-11-21T19:27:01.171Z,12.78
2018-11-21T19:29:49.129Z,13.13
2018-11-21T19:32:36.883Z,13.68
2018-11-21T19:35:24.790Z,10.65
2018-11-21T19:38:12.648Z,12.95
2018-11-21T19:41:00.504Z,11.10
2018-11-21T19:43:48.330Z,12.78
2018-11-21T19:46:36.255Z,11.50
2018-11-21T19:49:24.120Z,13.62
2018-11-21T19:52:12.032Z,14.25
2018-11-21T19:54:59.830Z,11.83
2018-11-21T19:57:47.988Z,13.70
2018-11-21T20:03:30.113Z,13.20
2018-11-21T20:08:53.443Z,13.38
2018-11-21T20:11:33.784Z,10.65
2018-11-21T20:14:14.633Z,12.85
2018-11-21T20:16:55.230Z,11.45
2018-11-21T20:22:18.380Z,15.05
2018-11-21T20:24:59.305Z,12.10
2018-11-21T20:27:40.644Z,15.93
2018-11-21T20:30:23.768Z,15.60
2018-11-21T20:33:04.241Z,13.70
2018-11-21T20:35:45.434Z,14.90
2018-11-21T20:38:26.596Z,15.40
2018-11-21T20:41:07.166Z,15.25
2018-11-21T20:43:48.012Z,14.85
2018-11-21T20:46:28.867Z,14.23
2018-11-21T20:49:11.514Z,13.45
2018-11-21T20:51:50.079Z,12.73
2018-11-21T20:54:31.174Z,15.10
2018-11-21T20:57:12.394Z,14.35
2018-11-21T20:59:53.084Z,14.83
2018-11-21T21:02:34.275Z,14.28
2018-11-21T21:05:16.259Z,11.35
2018-11-21T21:07:57.143Z,12.90
2018-11-21T21:10:43.945Z,13.98
2018-11-21T21:13:24.786Z,12.50
2018-11-21T21:16:05.990Z,11.05
2018-11-21T21:18:48.187Z,12.05
2018-11-21T21:21:31.012Z,12.70
2018-11-21T21:24:12.029Z,11.20
2018-11-21T21:26:53.551Z,12.37
2018-11-21T21:29:34.500Z,9.60
2018-11-21T21:32:14.898Z,12.35
2018-11-21T21:34:57.128Z,12.33
2018-11-21T21:37:37.069Z,10.95
2018-11-21T21:58:17.663Z,9.20
2018-11-21T22:01:12.060Z,11.05
2018-11-21T22:04:04.421Z,12.95
2018-11-21T22:07:05.173Z,10.48
2018-11-21T22:10:14.326Z,10.28
2018-11-21T22:13:02.450Z,10.35
2018-11-21T22:15:50.572Z,13.08
2018-11-21T22:18:38.433Z,13.50
2018-11-21T22:21:26.314Z,10.55
2018-11-21T22:24:14.136Z,11.05
2018-11-21T22:27:01.964Z,9.95
2018-11-21T22:29:49.723Z,13.68
2018-11-21T22:32:37.582Z,14.15
2018-11-21T22:35:26.874Z,11.95
2018-11-21T22:38:14.717Z,13.45
2018-11-21T22:41:02.563Z,11.97
2018-11-21T22:43:50.403Z,11.48
2018-11-21T22:46:38.308Z,15.63
2018-11-21T22:49:26.065Z,11.45
2018-11-21T22:52:13.850Z,13.30
2018-11-21T22:55:01.643Z,14.73
2018-11-21T22:57:50.009Z,12.13
2018-11-21T23:00:40.120Z,11.88
2018-11-21T23:03:27.969Z,12.25
2018-11-21T23:06:15.788Z,11.00
2018-11-21T23:09:03.725Z,12.50
2018-11-21T23:11:51.588Z,10.95
2018-11-21T23:14:39.373Z,11.68
2018-11-21T23:17:20.554Z,13.53
2018-11-21T23:20:02.137Z,11.85
2018-11-21T23:22:43.210Z,10.60
2018-11-21T23:25:24.225Z,13.80
2018-11-21T23:28:05.062Z,11.00
2018-11-21T23:33:28.837Z,11.38
2018-11-21T23:36:09.955Z,12.07
2018-11-21T23:41:33.030Z,13.13
2018-11-21T23:44:13.746Z,13.32
2018-11-21T23:46:54.071Z,11.15
2018-11-21T23:49:35.484Z,14.07
2018-11-21T23:52:16.606Z,11.88
2018-11-21T23:54:57.587Z,12.90
2018-11-21T23:57:38.072Z,11.78
